Time;durP1;ratioP1;P1;durP2;ratioP2;P2;SDS_P1;SDS_P2;PMS_P1;PMS_P2;Temp;Humidity;BMP_temperature;BMP_pressure;BME280_temperature;BME280_humidity;BME280_pressure;Samples;Min_cycle;Max_cycle;Signal;HPM_P1;HPM_P2
2023/09/22 00:00:59;;;;;;;4.53;1.75;;;14.60;99.90;;;;;;5037194;28;20080;-82
2023/09/22 00:03:26;;;;;;;3.20;1.40;;;14.30;99.90;;;;;;5032973;28;20064;-83
2023/09/22 00:05:52;;;;;;;3.05;1.50;;;14.60;99.90;;;;;;5034798;28;20492;-83
2023/09/22 00:08:21;;;;;;;3.17;1.30;;;14.60;99.90;;;;;;5070484;28;20084;-83
2023/09/22 00:10:46;;;;;;;5.22;1.42;;;14.60;99.90;;;;;;5047022;28;20272;-83
2023/09/22 00:13:14;;;;;;;3.13;1.40;;;14.60;99.90;;;;;;5050451;28;20186;-82
2023/09/22 00:15:41;;;;;;;1.92;1.00;;;14.60;99.90;;;;;;5033520;28;20762;-83
2023/09/22 00:18:07;;;;;;;3.75;1.77;;;14.70;99.90;;;;;;5051041;28;20041;-81
2023/09/22 00:20:33;;;;;;;4.65;1.45;;;14.60;99.90;;;;;;5066417;28;20061;-81
2023/09/22 00:22:59;;;;;;;5.63;1.80;;;14.70;99.90;;;;;;5033411;28;20049;-82
2023/09/22 00:25:25;;;;;;;3.97;1.73;;;14.60;99.90;;;;;;5033730;28;20128;-82
2023/09/22 00:27:50;;;;;;;2.45;1.33;;;14.70;99.90;;;;;;5050922;28;20125;-81
2023/09/22 00:30:19;;;;;;;5.45;2.30;;;14.70;99.90;;;;;;5033035;28;20512;-82
2023/09/22 00:32:45;;;;;;;10.32;3.20;;;14.70;99.90;;;;;;5039319;28;20064;-83
2023/09/22 00:35:12;;;;;;;9.57;4.50;;;14.70;99.90;;;;;;5035357;28;20049;-82
2023/09/22 00:37:42;;;;;;;8.15;4.30;;;14.70;99.90;;;;;;5050054;28;20106;-81
2023/09/22 00:40:12;;;;;;;8.18;4.80;;;14.60;99.90;;;;;;5041033;28;20053;-82
2023/09/22 00:42:38;;;;;;;12.48;7.40;;;14.60;99.90;;;;;;5034627;28;20064;-81
2023/09/22 00:45:04;;;;;;;10.30;5.78;;;14.60;99.90;;;;;;5032700;28;20041;-83
2023/09/22 00:47:30;;;;;;;16.15;9.20;;;14.60;99.90;;;;;;5044323;28;20049;-82
2023/09/22 00:49:56;;;;;;;14.75;9.52;;;14.60;99.90;;;;;;5052015;28;20052;-83
2023/09/22 00:52:23;;;;;;;14.73;8.80;;;14.60;99.90;;;;;;5052516;28;20055;-82
2023/09/22 00:54:50;;;;;;;18.58;10.68;;;14.60;99.90;;;;;;5037987;28;20044;-82
2023/09/22 00:57:19;;;;;;;18.60;11.10;;;14.60;99.90;;;;;;5053220;28;20045;-82
2023/09/22 00:59:46;;;;;;;15.60;9.18;;;14.60;99.90;;;;;;5053190;28;20049;-83
2023/09/22 01:02:14;;;;;;;17.25;10.73;;;14.60;99.90;;;;;;5052920;28;20127;-82
2023/09/22 01:04:40;;;;;;;12.52;7.60;;;14.60;99.90;;;;;;5050429;28;20120;-82
2023/09/22 01:07:06;;;;;;;16.23;10.95;;;14.60;99.90;;;;;;5024148;28;20128;-82
2023/09/22 01:09:32;;;;;;;17.33;10.20;;;14.60;99.90;;;;;;5039918;28;20053;-82
2023/09/22 01:11:58;;;;;;;15.43;10.38;;;14.60;99.90;;;;;;5053111;28;20061;-82
2023/09/22 01:14:24;;;;;;;20.63;12.20;;;14.60;99.90;;;;;;5041427;28;20084;-82
2023/09/22 01:16:51;;;;;;;20.63;13.60;;;14.60;99.90;;;;;;5040672;28;20060;-82
2023/09/22 01:19:17;;;;;;;17.30;10.90;;;14.60;99.90;;;;;;5025032;28;20125;-82
2023/09/22 01:21:46;;;;;;;16.27;10.57;;;14.60;99.90;;;;;;5045790;28;20581;-83
2023/09/22 01:24:12;;;;;;;19.20;11.90;;;14.60;99.90;;;;;;5018010;28;20444;-82
2023/09/22 01:26:39;;;;;;;14.98;10.75;;;14.60;99.90;;;;;;5031902;28;20053;-82
2023/09/22 01:29:08;;;;;;;21.58;14.25;;;14.60;99.90;;;;;;5034252;28;20049;-82
2023/09/22 01:31:35;;;;;;;23.25;15.30;;;14.70;99.90;;;;;;5031545;28;20049;-83
2023/09/22 01:34:02;;;;;;;18.00;11.90;;;14.70;99.90;;;;;;5038748;28;20473;-82
2023/09/22 01:36:29;;;;;;;15.88;9.95;;;14.60;99.90;;;;;;5040507;28;20466;-82
2023/09/22 01:38:57;;;;;;;25.65;15.95;;;14.60;99.90;;;;;;5039344;28;20123;-82
2023/09/22 01:41:23;;;;;;;19.75;12.48;;;14.60;99.90;;;;;;5041638;28;20078;-82
2023/09/22 01:43:49;;;;;;;27.20;17.60;;;14.60;99.90;;;;;;5031540;28;20390;-82
2023/09/22 01:46:15;;;;;;;23.20;15.50;;;14.70;99.90;;;;;;5033001;28;20050;-82
2023/09/22 01:48:42;;;;;;;25.45;15.75;;;14.60;99.90;;;;;;5024102;28;20049;-83
2023/09/22 01:51:07;;;;;;;25.08;16.10;;;14.60;99.90;;;;;;5038437;28;20044;-83
2023/09/22 01:53:35;;;;;;;28.90;16.88;;;14.60;99.90;;;;;;5056420;28;20053;-81
2023/09/22 01:56:00;;;;;;;18.38;13.02;;;14.60;99.90;;;;;;5034444;28;20497;-81
2023/09/22 01:58:26;;;;;;;24.52;16.60;;;14.60;99.90;;;;;;5047505;28;20041;-82
2023/09/22 02:00:54;;;;;;;27.45;18.35;;;14.60;99.90;;;;;;5033652;28;20041;-82
2023/09/22 02:03:19;;;;;;;22.77;16.42;;;14.60;99.90;;;;;;5031034;28;20130;-82
2023/09/22 02:05:45;;;;;;;25.55;16.80;;;14.60;99.90;;;;;;5070549;28;20086;-81
2023/09/22 02:08:11;;;;;;;26.13;16.98;;;14.60;99.90;;;;;;5033752;28;20044;-81
2023/09/22 02:10:37;;;;;;;27.48;18.42;;;14.50;99.90;;;;;;5048329;28;20061;-82
2023/09/22 02:13:04;;;;;;;21.15;14.40;;;14.60;99.90;;;;;;5033076;28;20045;-81
2023/09/22 02:15:31;;;;;;;19.92;13.38;;;14.50;99.90;;;;;;5031337;28;20639;-82
2023/09/22 02:17:58;;;;;;;29.00;18.58;;;14.50;99.90;;;;;;5051321;28;20049;-82
2023/09/22 02:20:23;;;;;;;31.13;19.60;;;14.50;99.90;;;;;;5083909;28;20424;-83
2023/09/22 02:22:51;;;;;;;24.88;16.27;;;14.50;99.90;;;;;;5052654;28;20045;-82
2023/09/22 02:25:17;;;;;;;35.40;18.30;;;14.40;99.90;;;;;;5033513;28;20117;-82
2023/09/22 02:27:44;;;;;;;27.80;17.90;;;14.40;99.90;;;;;;5037926;28;20044;-83
2023/09/22 02:30:10;;;;;;;23.00;15.82;;;14.40;99.90;;;;;;5051215;28;20084;-82
2023/09/22 02:32:38;;;;;;;25.58;18.17;;;14.40;99.90;;;;;;5051584;28;20132;-82
2023/09/22 02:35:04;;;;;;;22.92;15.90;;;14.50;99.90;;;;;;5017086;28;20046;-82
2023/09/22 02:37:30;;;;;;;23.05;16.05;;;14.40;99.90;;;;;;5034493;28;20404;-80
2023/09/22 02:39:56;;;;;;;26.65;19.20;;;14.40;99.90;;;;;;5054284;28;20037;-82
2023/09/22 02:42:22;;;;;;;22.90;15.32;;;14.40;99.90;;;;;;5051367;28;20072;-82
2023/09/22 02:44:47;;;;;;;27.75;19.05;;;14.40;99.90;;;;;;5035908;28;20049;-82
2023/09/22 02:47:14;;;;;;;23.00;15.70;;;14.40;99.90;;;;;;5045593;28;20427;-83
2023/09/22 02:49:40;;;;;;;29.67;19.35;;;14.40;99.90;;;;;;5032096;28;20045;-81
2023/09/22 02:52:05;;;;;;;28.67;19.15;;;14.40;99.90;;;;;;5031389;28;20137;-82
2023/09/22 02:54:32;;;;;;;28.17;19.30;;;14.30;99.90;;;;;;5030214;28;20049;-82
2023/09/22 02:56:58;;;;;;;22.50;15.50;;;14.40;99.90;;;;;;5031752;28;20052;-83
2023/09/22 02:59:25;;;;;;;31.55;18.40;;;14.40;99.90;;;;;;5038932;28;20041;-82
2023/09/22 03:01:52;;;;;;;25.98;17.10;;;14.40;99.90;;;;;;5033776;28;20436;-82
2023/09/22 03:04:18;;;;;;;22.75;16.30;;;14.40;99.90;;;;;;5017158;28;20081;-82
2023/09/22 03:06:43;;;;;;;17.08;11.85;;;14.40;99.90;;;;;;5034308;28;20045;-82
2023/09/22 03:09:10;;;;;;;28.38;17.98;;;14.40;99.90;;;;;;5024016;28;20049;-80
2023/09/22 03:11:39;;;;;;;27.15;17.80;;;14.40;99.90;;;;;;5048818;28;20045;-82
2023/09/22 03:14:04;;;;;;;26.38;18.02;;;14.40;99.90;;;;;;5043813;28;20037;-82
2023/09/22 03:16:31;;;;;;;28.65;18.40;;;14.40;99.90;;;;;;5050208;28;20602;-83
2023/09/22 03:18:57;;;;;;;23.27;15.82;;;14.40;99.90;;;;;;5048915;28;20056;-80
2023/09/22 03:21:26;;;;;;;25.10;16.90;;;14.40;99.90;;;;;;5049139;28;20051;-82
2023/09/22 03:23:53;;;;;;;26.05;16.55;;;14.40;99.90;;;;;;5043356;28;20046;-82
2023/09/22 03:26:19;;;;;;;25.38;17.15;;;14.40;99.90;;;;;;5015469;28;20056;-81
2023/09/22 03:28:45;;;;;;;23.95;15.35;;;14.40;99.90;;;;;;5040848;28;20122;-82
2023/09/22 03:31:11;;;;;;;26.50;17.08;;;14.40;99.90;;;;;;5069965;28;20049;-82
2023/09/22 03:33:40;;;;;;;24.30;15.15;;;14.40;99.90;;;;;;5043645;28;20639;-82
2023/09/22 03:36:10;;;;;;;24.85;16.52;;;14.40;99.90;;;;;;5048747;28;20138;-82
2023/09/22 03:38:41;;;;;;;23.35;16.10;;;14.40;99.90;;;;;;5045281;28;20053;-83
2023/09/22 03:41:07;;;;;;;26.20;15.93;;;14.40;99.90;;;;;;5057966;28;20050;-82
2023/09/22 03:43:34;;;;;;;24.67;15.35;;;14.40;99.90;;;;;;5038953;28;20394;-81
2023/09/22 03:46:01;;;;;;;23.65;15.88;;;14.30;99.90;;;;;;5053343;28;20508;-82
2023/09/22 03:48:27;;;;;;;23.52;15.43;;;14.30;99.90;;;;;;5054142;28;20045;-82
2023/09/22 03:50:55;;;;;;;25.33;16.02;;;14.30;99.90;;;;;;5047537;28;20477;-82
2023/09/22 03:53:22;;;;;;;30.63;16.13;;;14.20;99.90;;;;;;5034107;28;20183;-82
2023/09/22 03:55:49;;;;;;;25.52;15.73;;;14.20;99.90;;;;;;5035647;28;20056;-82
2023/09/22 03:58:16;;;;;;;23.85;14.80;;;14.20;99.90;;;;;;5049733;28;20041;-82
2023/09/22 04:00:43;;;;;;;24.15;15.30;;;14.20;99.90;;;;;;5032321;28;20049;-82
2023/09/22 04:03:09;;;;;;;27.80;16.77;;;14.20;99.90;;;;;;5033824;28;20045;-83
2023/09/22 04:05:39;;;;;;;24.10;15.55;;;14.20;99.90;;;;;;5033158;28;20106;-83
2023/09/22 04:08:05;;;;;;;27.30;16.90;;;14.10;99.90;;;;;;5035350;28;20045;-82
2023/09/22 04:10:34;;;;;;;35.75;16.60;;;14.20;99.90;;;;;;5048604;28;20048;-81
2023/09/22 04:13:00;;;;;;;29.70;16.75;;;14.10;99.90;;;;;;5045175;28;20053;-81
2023/09/22 04:15:26;;;;;;;25.02;15.02;;;14.20;99.90;;;;;;5029262;28;20067;-82
2023/09/22 04:17:54;;;;;;;25.35;15.70;;;14.20;99.90;;;;;;5034448;28;20107;-79
2023/09/22 04:20:29;;;;;;;27.58;15.88;;;14.20;99.90;;;;;;5069995;28;20051;-81
2023/09/22 04:22:59;;;;;;;28.50;16.70;;;14.20;99.90;;;;;;5054658;28;20093;-82
2023/09/22 04:25:29;;;;;;;30.13;16.75;;;14.20;99.90;;;;;;5055346;28;20423;-82
2023/09/22 04:28:07;;;;;;;27.65;16.80;;;14.20;99.90;;;;;;5053096;28;20492;-82
2023/09/22 04:30:39;;;;;;;27.63;16.02;;;14.30;99.90;;;;;;5005790;28;20064;-81
2023/09/22 04:33:05;;;;;;;22.92;13.75;;;14.20;99.90;;;;;;5034872;28;20053;-82
2023/09/22 04:35:32;;;;;;;23.45;15.13;;;14.20;99.90;;;;;;5031225;28;20091;-82
2023/09/22 04:38:02;;;;;;;23.73;16.45;;;14.20;99.90;;;;;;5036364;28;20128;-81
2023/09/22 04:40:36;;;;;;;26.73;15.57;;;14.20;99.90;;;;;;5045959;28;20444;-80
2023/09/22 04:43:03;;;;;;;27.17;16.45;;;14.20;99.90;;;;;;5045641;28;20045;-82
2023/09/22 04:45:29;;;;;;;24.88;15.75;;;14.20;99.90;;;;;;5032136;28;20060;-81
2023/09/22 04:47:56;;;;;;;26.52;17.40;;;14.20;99.90;;;;;;5041669;28;20148;-81
2023/09/22 04:50:22;;;;;;;26.02;17.17;;;14.20;99.90;;;;;;5053913;28;20106;-81
2023/09/22 04:52:52;;;;;;;33.97;18.05;;;14.20;99.90;;;;;;5052022;28;20092;-82
2023/09/22 04:55:19;;;;;;;28.40;17.05;;;14.10;99.90;;;;;;5065797;28;20556;-82
2023/09/22 04:57:45;;;;;;;29.27;18.30;;;14.10;99.90;;;;;;5048157;28;20080;-83
2023/09/22 05:00:16;;;;;;;35.40;18.70;;;14.10;99.90;;;;;;5053040;28;20048;-82
2023/09/22 05:02:45;;;;;;;32.10;18.52;;;14.10;99.90;;;;;;5046710;28;20049;-83
2023/09/22 05:05:19;;;;;;;32.00;19.80;;;14.10;99.90;;;;;;5068625;28;20560;-83
2023/09/22 05:07:45;;;;;;;27.17;16.73;;;14.00;99.90;;;;;;5053622;28;20045;-84
2023/09/22 05:10:11;;;;;;;28.23;16.85;;;14.10;99.90;;;;;;5057836;28;20127;-83
2023/09/22 05:12:37;;;;;;;30.35;17.98;;;14.00;99.90;;;;;;5073471;28;20127;-82
2023/09/22 05:15:04;;;;;;;31.25;18.63;;;14.00;99.90;;;;;;5053065;28;20049;-84
2023/09/22 05:17:30;;;;;;;31.65;18.55;;;14.00;99.90;;;;;;5049551;28;20448;-85
2023/09/22 05:19:58;;;;;;;30.92;18.20;;;14.00;99.90;;;;;;5065498;28;20057;-84
2023/09/22 05:22:24;;;;;;;30.55;17.50;;;14.00;99.90;;;;;;5039347;28;20037;-86
2023/09/22 05:24:50;;;;;;;30.73;19.33;;;13.90;99.90;;;;;;5037375;28;20423;-86
2023/09/22 05:27:16;;;;;;;30.63;17.58;;;13.90;99.90;;;;;;5053243;28;20175;-86
2023/09/22 05:29:41;;;;;;;27.10;16.15;;;13.90;99.90;;;;;;5053082;28;20045;-85
2023/09/22 05:32:08;;;;;;;36.53;17.90;;;13.90;99.90;;;;;;5044171;28;20409;-86
2023/09/22 05:34:34;;;;;;;32.47;18.63;;;13.80;99.90;;;;;;5036997;28;20118;-85
2023/09/22 05:37:03;;;;;;;30.75;18.45;;;13.80;99.90;;;;;;5054967;28;20079;-86
2023/09/22 05:39:28;;;;;;;33.08;19.80;;;13.80;99.90;;;;;;5047760;28;20402;-86
2023/09/22 05:41:54;;;;;;;30.55;17.27;;;13.80;99.90;;;;;;5046984;28;20052;-85
2023/09/22 05:44:20;;;;;;;32.38;18.73;;;13.80;99.90;;;;;;5035044;28;20125;-85
2023/09/22 05:46:49;;;;;;;34.25;20.25;;;13.80;99.90;;;;;;5034669;28;20073;-85
2023/09/22 05:49:15;;;;;;;30.52;18.00;;;13.70;99.90;;;;;;5046111;28;20079;-86
2023/09/22 05:51:43;;;;;;;32.33;19.92;;;13.70;99.90;;;;;;5053782;28;20045;-86
2023/09/22 05:54:09;;;;;;;34.65;19.65;;;13.70;99.90;;;;;;5053392;28;20041;-85
2023/09/22 05:56:35;;;;;;;32.78;19.95;;;13.70;99.90;;;;;;5053634;28;20052;-85
2023/09/22 05:59:06;;;;;;;34.95;19.17;;;13.70;99.90;;;;;;5053901;28;20495;-81
2023/09/22 06:01:39;;;;;;;36.83;20.92;;;13.80;99.90;;;;;;5010516;28;20057;-85
2023/09/22 06:04:05;;;;;;;34.15;19.63;;;13.80;99.90;;;;;;5034601;28;20057;-87
2023/09/22 06:06:34;;;;;;;34.30;21.08;;;13.80;99.90;;;;;;5036751;28;20060;-88
2023/09/22 06:09:00;;;;;;;38.22;21.75;;;13.80;99.90;;;;;;5035540;28;20704;-85
2023/09/22 06:11:26;;;;;;;35.88;20.60;;;13.80;99.90;;;;;;5053759;28;20073;-89
2023/09/22 06:13:55;;;;;;;37.50;21.70;;;13.80;99.90;;;;;;5056301;28;20041;-83
2023/09/22 06:16:23;;;;;;;35.33;20.40;;;13.70;99.90;;;;;;5050725;28;20152;-85
2023/09/22 06:18:49;;;;;;;40.55;20.88;;;13.70;99.90;;;;;;5037140;28;20049;-88
2023/09/22 06:21:17;;;;;;;36.80;20.95;;;13.70;99.90;;;;;;5038307;28;20132;-87
2023/09/22 06:23:43;;;;;;;34.45;18.73;;;13.80;99.90;;;;;;5042904;28;20085;-86
2023/09/22 06:26:10;;;;;;;37.42;21.30;;;13.70;99.90;;;;;;5034749;28;20049;-85
2023/09/22 06:28:36;;;;;;;39.40;21.83;;;13.70;99.90;;;;;;5051494;28;20045;-86
2023/09/22 06:31:04;;;;;;;32.97;20.73;;;13.80;99.90;;;;;;5034861;28;20640;-85
2023/09/22 06:33:32;;;;;;;32.67;19.20;;;13.80;99.90;;;;;;5018135;28;20089;-86
2023/09/22 06:36:03;;;;;;;31.75;20.33;;;13.80;99.90;;;;;;5033437;28;20076;-86
2023/09/22 06:38:34;;;;;;;33.10;20.25;;;13.80;99.90;;;;;;5001850;28;20088;-87
2023/09/22 06:41:04;;;;;;;34.28;20.23;;;13.80;99.90;;;;;;5037445;28;20496;-84
2023/09/22 06:43:30;;;;;;;31.48;19.63;;;13.80;99.90;;;;;;5033962;28;20045;-86
2023/09/22 06:46:03;;;;;;;33.58;19.20;;;13.90;99.90;;;;;;5036553;28;20144;-86
2023/09/22 06:48:30;;;;;;;28.52;18.05;;;13.90;99.90;;;;;;5031726;28;20049;-84
2023/09/22 06:50:58;;;;;;;35.13;18.75;;;13.80;99.90;;;;;;5031511;28;20053;-86
2023/09/22 06:53:26;;;;;;;32.10;17.98;;;13.80;99.90;;;;;;5033753;28;20111;-83
2023/09/22 06:56:06;;;;;;;28.38;17.23;;;13.90;99.90;;;;;;5031194;28;20033;-84
2023/09/22 06:58:37;;;;;;;29.25;16.52;;;13.90;99.90;;;;;;5031568;28;20053;-84
2023/09/22 07:01:12;;;;;;;28.83;16.73;;;13.90;99.90;;;;;;5030877;28;20056;-85
2023/09/22 07:03:38;;;;;;;;;;;13.90;99.90;;;;;;5033101;28;20523;-84
2023/09/22 07:06:06;;;;;;;27.15;15.75;;;13.90;99.90;;;;;;5066404;28;20324;-83
2023/09/22 07:08:32;;;;;;;30.95;16.75;;;13.90;99.90;;;;;;5016257;28;20084;-86
2023/09/22 07:11:02;;;;;;;28.33;14.80;;;14.00;99.90;;;;;;5061947;28;20084;-87
2023/09/22 07:13:31;;;;;;;26.92;15.80;;;14.00;99.90;;;;;;5053416;28;20059;-83
2023/09/22 07:16:00;;;;;;;27.38;15.85;;;14.00;99.90;;;;;;5039637;28;20041;-85
2023/09/22 07:18:27;;;;;;;24.35;14.82;;;14.00;99.90;;;;;;5057152;28;20115;-85
2023/09/22 07:20:53;;;;;;;24.80;14.50;;;14.00;99.90;;;;;;5055710;28;20045;-87
2023/09/22 07:23:23;;;;;;;24.13;14.23;;;14.10;99.90;;;;;;5057201;28;20049;-86
2023/09/22 07:26:02;;;;;;;25.38;14.57;;;14.10;99.90;;;;;;5053904;28;20046;-85
2023/09/22 07:28:28;;;;;;;23.52;14.65;;;14.10;99.90;;;;;;5054119;28;20132;-86
2023/09/22 07:30:54;;;;;;;25.80;15.63;;;14.10;99.90;;;;;;5053443;28;20061;-85
2023/09/22 07:33:23;;;;;;;22.23;14.15;;;14.10;99.90;;;;;;5053264;28;20041;-85
2023/09/22 07:35:50;;;;;;;23.58;14.68;;;14.10;99.90;;;;;;5052852;28;20408;-85
2023/09/22 07:38:18;;;;;;;23.63;14.40;;;14.10;99.90;;;;;;5052490;28;20088;-84
2023/09/22 07:40:44;;;;;;;23.50;14.05;;;14.10;99.90;;;;;;5053014;28;20060;-84
2023/09/22 07:43:10;;;;;;;26.45;14.85;;;14.10;99.90;;;;;;5052907;28;20110;-84
2023/09/22 07:45:38;;;;;;;25.38;13.93;;;14.10;99.90;;;;;;5052880;28;20619;-84
2023/09/22 07:48:07;;;;;;;21.60;14.43;;;14.10;99.90;;;;;;5036872;28;20078;-85
2023/09/22 07:50:36;;;;;;;25.55;13.32;;;14.10;99.90;;;;;;5035738;28;20432;-82
2023/09/22 07:53:02;;;;;;;23.95;14.82;;;14.20;99.90;;;;;;5052303;28;20413;-85
2023/09/22 07:55:28;;;;;;;19.83;13.40;;;14.20;99.90;;;;;;5052402;28;20063;-85
2023/09/22 07:57:54;;;;;;;25.13;13.10;;;14.20;99.90;;;;;;5051557;28;20392;-85
2023/09/22 08:00:20;;;;;;;22.77;14.35;;;14.20;99.90;;;;;;5052228;28;20331;-85
2023/09/22 08:02:49;;;;;;;22.70;13.10;;;14.20;99.90;;;;;;5018786;28;20056;-85
2023/09/22 08:05:15;;;;;;;21.23;13.57;;;14.20;99.90;;;;;;5035738;28;20377;-85
2023/09/22 08:07:42;;;;;;;18.92;13.25;;;14.20;99.90;;;;;;5051433;28;20045;-85
2023/09/22 08:10:10;;;;;;;20.52;11.93;;;14.20;99.90;;;;;;5052235;28;20395;-85
2023/09/22 08:12:41;;;;;;;19.77;11.30;;;14.30;99.90;;;;;;5052713;28;20495;-85
2023/09/22 08:15:08;;;;;;;18.60;10.25;;;14.30;99.90;;;;;;5055917;28;20057;-86
2023/09/22 08:17:37;;;;;;;16.23;10.88;;;14.30;99.90;;;;;;5056930;28;20106;-86
2023/09/22 08:20:07;;;;;;;17.08;10.60;;;14.30;99.90;;;;;;5055524;28;20051;-85
2023/09/22 08:22:32;;;;;;;15.63;9.98;;;14.30;99.90;;;;;;5056863;28;20516;-83
2023/09/22 08:24:59;;;;;;;14.85;8.88;;;14.30;99.90;;;;;;5039127;28;20136;-85
2023/09/22 08:27:25;;;;;;;17.40;9.15;;;14.30;99.90;;;;;;5056263;28;20453;-87
2023/09/22 08:29:51;;;;;;;15.20;8.98;;;14.40;99.90;;;;;;5055782;28;20045;-85
2023/09/22 08:32:20;;;;;;;15.57;8.98;;;14.40;99.90;;;;;;5055553;28;20489;-86
2023/09/22 08:34:46;;;;;;;14.88;8.98;;;14.40;99.90;;;;;;5055174;28;20132;-85
2023/09/22 08:37:12;;;;;;;13.48;7.63;;;14.50;99.90;;;;;;5056351;28;20045;-85
2023/09/22 08:39:38;;;;;;;14.02;7.47;;;14.50;99.90;;;;;;5069279;28;20049;-87
2023/09/22 08:42:04;;;;;;;12.35;7.20;;;14.60;99.90;;;;;;5051994;28;20079;-84
2023/09/22 08:44:30;;;;;;;13.30;6.70;;;14.60;99.90;;;;;;5068276;28;20084;-87
2023/09/22 08:46:59;;;;;;;12.43;7.30;;;14.60;99.90;;;;;;5035533;28;20084;-87
2023/09/22 08:49:26;;;;;;;12.68;6.10;;;14.70;99.90;;;;;;5035451;28;20056;-87
2023/09/22 08:51:51;;;;;;;8.55;5.43;;;14.70;99.90;;;;;;5035505;28;20042;-87
2023/09/22 08:54:18;;;;;;;11.57;5.95;;;14.80;99.90;;;;;;5068512;28;20179;-87
2023/09/22 08:56:44;;;;;;;10.25;5.53;;;14.80;99.90;;;;;;5052299;28;20064;-85
2023/09/22 08:59:10;;;;;;;13.60;5.35;;;14.80;99.90;;;;;;5035260;28;20049;-85
2023/09/22 09:01:36;;;;;;;8.73;5.30;;;14.80;99.90;;;;;;5069011;28;20416;-87
2023/09/22 09:04:40;;;;;;;8.10;4.40;;;14.90;99.90;;;;;;5034748;28;20124;-87
2023/09/22 09:07:09;;;;;;;10.18;4.38;;;14.90;99.90;;;;;;5032314;28;20061;-89
2023/09/22 09:09:43;;;;;;;9.45;4.20;;;15.00;99.90;;;;;;5052338;28;20049;-83
2023/09/22 09:12:09;;;;;;;9.03;4.30;;;15.00;99.90;;;;;;5036997;28;20053;-86
2023/09/22 09:14:39;;;;;;;9.38;4.68;;;15.00;99.90;;;;;;5051840;28;20362;-89
2023/09/22 09:17:22;;;;;;;9.93;3.78;;;15.00;99.90;;;;;;5039836;28;20080;-82
2023/09/22 09:19:56;;;;;;;7.57;4.22;;;15.10;99.90;;;;;;5039296;28;20064;-87
2023/09/22 09:22:30;;;;;;;8.27;4.70;;;15.20;99.90;;;;;;5054672;28;20400;-85
2023/09/22 09:24:59;;;;;;;8.20;4.60;;;15.30;99.90;;;;;;5069210;28;20033;-85
2023/09/22 09:27:26;;;;;;;8.90;4.00;;;15.50;99.90;;;;;;5040843;28;20044;-84
2023/09/22 09:29:53;;;;;;;9.95;4.25;;;15.70;99.90;;;;;;5039102;28;20044;-84
2023/09/22 09:32:29;;;;;;;8.20;4.55;;;16.00;99.90;;;;;;5039135;28;20045;-84
2023/09/22 09:34:55;;;;;;;6.10;2.67;;;16.20;99.90;;;;;;5038256;28;20056;-87
2023/09/22 09:37:24;;;;;;;5.68;2.55;;;16.50;99.90;;;;;;5055473;28;20558;-84
2023/09/22 09:39:55;;;;;;;6.93;2.67;;;16.60;99.90;;;;;;5054764;28;20057;-86
2023/09/22 09:42:25;;;;;;;7.25;3.33;;;16.80;99.90;;;;;;5055951;28;20045;-86
2023/09/22 09:44:57;;;;;;;4.93;2.33;;;16.80;99.90;;;;;;5054800;28;20087;-85
2023/09/22 09:47:29;;;;;;;5.03;2.58;;;16.70;99.90;;;;;;5055000;28;20044;-86
2023/09/22 09:49:56;;;;;;;3.80;2.15;;;16.60;99.90;;;;;;5061552;28;20044;-82
2023/09/22 09:52:48;;;;;;;6.57;2.00;;;16.50;99.90;;;;;;5062377;28;20052;-85
2023/09/22 09:55:17;;;;;;;5.22;2.00;;;16.30;99.90;;;;;;5051963;28;20065;-81
2023/09/22 09:57:44;;;;;;;2.53;1.40;;;16.10;99.90;;;;;;5054849;28;20147;-81
2023/09/22 10:00:13;;;;;;;5.88;2.00;;;16.10;99.90;;;;;;5054292;28;20085;-81
2023/09/22 10:02:46;;;;;;;3.95;1.67;;;16.10;99.90;;;;;;5054106;28;20123;-81
2023/09/22 10:05:21;;;;;;;3.92;1.73;;;16.20;99.90;;;;;;5037616;28;20056;-81
2023/09/22 10:07:48;;;;;;;4.35;1.75;;;16.40;99.90;;;;;;5053516;28;20041;-81
2023/09/22 10:10:17;;;;;;;3.22;1.60;;;16.60;99.90;;;;;;5037137;28;20052;-81
2023/09/22 10:12:44;;;;;;;3.50;1.88;;;16.70;99.90;;;;;;5053529;28;20056;-80
2023/09/22 10:15:11;;;;;;;4.70;1.70;;;16.80;99.90;;;;;;5053041;28;20157;-80
2023/09/22 10:17:38;;;;;;;5.00;1.60;;;16.80;99.90;;;;;;5036390;28;20041;-81
2023/09/22 10:20:12;;;;;;;4.80;1.42;;;16.80;99.90;;;;;;5071711;28;20049;-81
2023/09/22 10:22:39;;;;;;;3.53;1.63;;;16.80;99.90;;;;;;5035195;28;20067;-81
2023/09/22 10:25:14;;;;;;;5.35;1.60;;;16.70;99.90;;;;;;5053240;28;20087;-80
2023/09/22 10:27:59;;;;;;;;;;;16.60;99.90;;;;;;5054314;28;20045;-81
2023/09/22 10:31:04;;;;;;;6.60;1.75;;;16.50;99.90;;;;;;5053691;28;19921;-81
2023/09/22 10:33:32;;;;;;;3.00;1.40;;;16.40;99.90;;;;;;5074602;28;20047;-81
2023/09/22 10:35:58;;;;;;;3.65;1.48;;;16.40;99.90;;;;;;5079978;28;20139;-82
2023/09/22 10:38:26;;;;;;;3.10;1.60;;;16.40;99.90;;;;;;5039280;28;20130;-82
2023/09/22 10:41:04;;;;;;;2.83;1.27;;;16.30;99.90;;;;;;5071911;28;20102;-81
2023/09/22 10:43:34;;;;;;;4.15;1.27;;;16.30;99.90;;;;;;5055420;28;20105;-82
2023/09/22 10:46:00;;;;;;;3.10;1.20;;;16.20;99.90;;;;;;5055425;28;20129;-82
2023/09/22 10:48:35;;;;;;;3.75;1.17;;;16.40;99.90;;;;;;5055101;28;20091;-82
2023/09/22 10:51:02;;;;;;;4.57;1.17;;;16.60;99.90;;;;;;5054988;28;20045;-80
2023/09/22 10:53:29;;;;;;;3.13;1.20;;;16.80;99.90;;;;;;5054763;28;20535;-83
2023/09/22 10:56:05;;;;;;;2.28;0.90;;;17.00;99.90;;;;;;5054648;28;20052;-82
2023/09/22 10:58:31;;;;;;;2.97;0.90;;;17.30;99.90;;;;;;5038447;28;20544;-81
2023/09/22 11:00:57;;;;;;;2.78;1.00;;;17.50;99.90;;;;;;5053980;28;20095;-83
2023/09/22 11:03:23;;;;;;;2.20;0.80;;;17.60;99.90;;;;;;5051561;28;20114;-82
2023/09/22 11:06:10;;;;;;;2.58;1.00;;;17.80;99.90;;;;;;5041758;28;20068;-82
2023/09/22 11:08:52;;;;;;;2.95;0.80;;;18.00;99.90;;;;;;5049744;28;20522;-82
2023/09/22 11:11:18;;;;;;;4.00;1.05;;;18.10;99.90;;;;;;5035383;28;20388;-84
2023/09/22 11:13:55;;;;;;;2.72;0.95;;;18.10;99.90;;;;;;5041681;28;20064;-82
2023/09/22 11:16:23;;;;;;;3.35;1.00;;;18.20;99.90;;;;;;5031241;28;20163;-82
2023/09/22 11:18:49;;;;;;;5.78;1.25;;;18.30;99.90;;;;;;5033752;28;20053;-83
2023/09/22 11:21:16;;;;;;;3.28;1.10;;;18.50;99.90;;;;;;5050364;28;20056;-82
2023/09/22 11:23:42;;;;;;;3.75;0.90;;;18.60;99.90;;;;;;5043695;28;20400;-83
2023/09/22 11:26:10;;;;;;;3.33;1.30;;;18.80;99.90;;;;;;5050267;28;20426;-84
2023/09/22 11:28:43;;;;;;;1.20;0.65;;;18.90;99.90;;;;;;5051145;28;20095;-81
2023/09/22 11:31:13;;;;;;;2.13;1.05;;;19.00;99.90;;;;;;5050451;28;20487;-81
2023/09/22 11:33:39;;;;;;;2.20;1.08;;;19.00;99.90;;;;;;5050424;28;20500;-83
2023/09/22 11:36:05;;;;;;;3.28;1.13;;;19.10;99.90;;;;;;5050612;28;20041;-82
2023/09/22 11:38:32;;;;;;;3.83;1.30;;;19.00;99.90;;;;;;5051476;28;20049;-81
2023/09/22 11:41:10;;;;;;;3.53;1.10;;;18.90;99.90;;;;;;5044692;28;20049;-82
2023/09/22 11:43:47;;;;;;;3.15;1.13;;;18.80;99.90;;;;;;5028692;28;20114;-81
2023/09/22 11:46:15;;;;;;;2.63;0.95;;;18.70;99.90;;;;;;5037655;28;20596;-84
2023/09/22 11:49:00;;;;;;;3.25;1.10;;;18.70;99.90;;;;;;5042073;28;20072;-83
2023/09/22 11:52:04;;;;;;;2.53;1.10;;;18.50;99.90;;;;;;5049193;28;20448;-83
2023/09/22 11:54:34;;;;;;;3.03;1.23;;;18.30;99.90;;;;;;4994464;28;20058;-82
2023/09/22 11:57:00;;;;;;;4.65;1.50;;;18.20;99.90;;;;;;5010645;28;20473;-83
2023/09/22 11:59:34;;;;;;;2.80;1.30;;;18.10;99.90;;;;;;5025082;28;20053;-82
2023/09/22 12:02:00;;;;;;;3.47;1.50;;;18.00;99.90;;;;;;5036431;28;20090;-83
2023/09/22 12:04:27;;;;;;;4.32;1.15;;;18.00;99.90;;;;;;5049550;28;20048;-82
2023/09/22 12:06:53;;;;;;;3.08;1.30;;;17.90;99.90;;;;;;5056104;28;20369;-82
2023/09/22 12:09:19;;;;;;;3.78;1.40;;;18.00;99.90;;;;;;5056067;28;20048;-82
2023/09/22 12:11:46;;;;;;;2.63;1.55;;;17.90;99.90;;;;;;5054710;28;20063;-82
2023/09/22 12:14:12;;;;;;;3.13;1.13;;;17.90;99.90;;;;;;5055603;28;20084;-83
2023/09/22 12:16:39;;;;;;;1.90;1.15;;;17.90;99.90;;;;;;5037978;28;20084;-82
2023/09/22 12:19:05;;;;;;;2.75;1.10;;;17.90;99.90;;;;;;5036085;28;20550;-83
2023/09/22 12:21:31;;;;;;;2.70;1.27;;;17.90;99.90;;;;;;5035852;28;20400;-81
2023/09/22 12:23:57;;;;;;;4.15;1.40;;;17.90;99.90;;;;;;5035678;28;20052;-82
2023/09/22 12:26:23;;;;;;;3.65;1.65;;;17.80;99.90;;;;;;5035732;28;20691;-82
2023/09/22 12:28:49;;;;;;;2.80;1.30;;;17.70;99.90;;;;;;5048046;28;20060;-83
2023/09/22 12:31:19;;;;;;;3.47;1.48;;;17.60;99.90;;;;;;5036467;28;20057;-82
2023/09/22 12:33:45;;;;;;;2.60;1.08;;;17.60;99.90;;;;;;5067681;28;20064;-82
2023/09/22 12:36:15;;;;;;;3.65;1.05;;;17.60;99.90;;;;;;5035672;28;20046;-82
2023/09/22 12:38:41;;;;;;;2.70;1.20;;;17.60;99.90;;;;;;5035582;28;20049;-83
2023/09/22 12:41:07;;;;;;;2.38;1.13;;;17.60;99.90;;;;;;5040685;28;20045;-83